createdAt,value
2019-01-09T00:01:02.923Z,6.70
2019-01-09T00:03:31.202Z,8.18
2019-01-09T00:05:59.484Z,6.37
2019-01-09T00:08:27.795Z,5.92
2019-01-09T00:10:56.084Z,6.33
2019-01-09T00:13:24.445Z,5.22
2019-01-09T00:15:52.770Z,4.10
2019-01-09T00:18:21.120Z,4.80
2019-01-09T00:20:49.403Z,4.12
2019-01-09T00:23:17.724Z,4.55
2019-01-09T00:25:46.009Z,5.62
2019-01-09T00:28:14.359Z,6.83
2019-01-09T00:30:42.811Z,7.58
2019-01-09T00:33:11.165Z,6.03
2019-01-09T00:35:39.452Z,7.70
2019-01-09T00:38:07.838Z,8.15
2019-01-09T00:40:36.118Z,6.37
2019-01-09T00:43:04.403Z,8.05
2019-01-09T00:45:32.717Z,7.55
2019-01-09T00:48:01.016Z,6.37
2019-01-09T00:50:29.293Z,7.70
2019-01-09T00:52:57.614Z,6.22
2019-01-09T00:55:25.912Z,8.23
2019-01-09T00:57:54.184Z,6.55
2019-01-09T01:00:22.508Z,7.12
2019-01-09T01:03:19.220Z,6.15
2019-01-09T01:06:11.575Z,5.03
2019-01-09T01:08:45.673Z,4.85
2019-01-09T01:11:25.962Z,6.65
2019-01-09T01:14:03.014Z,5.28
2019-01-09T01:16:58.478Z,6.37
2019-01-09T01:19:41.686Z,3.95
2019-01-09T01:22:13.266Z,4.97
2019-01-09T01:25:04.122Z,6.08
2019-01-09T01:27:35.696Z,4.67
2019-01-09T01:30:07.238Z,5.47
2019-01-09T01:32:53.675Z,6.92
2019-01-09T01:35:54.853Z,6.20
2019-01-09T01:38:32.547Z,6.10
2019-01-09T01:41:15.979Z,5.05
2019-01-09T01:43:47.554Z,6.22
2019-01-09T01:46:28.209Z,4.83
2019-01-09T01:49:11.606Z,5.97
2019-01-09T01:51:51.928Z,5.00
2019-01-09T01:54:32.186Z,3.80
2019-01-09T01:57:29.288Z,7.47
2019-01-09T02:00:00.962Z,6.40
2019-01-09T02:02:50.213Z,3.52
2019-01-09T02:05:21.797Z,5.42
2019-01-09T02:08:05.450Z,4.08
2019-01-09T02:10:39.771Z,4.25
2019-01-09T02:13:16.853Z,6.25
2019-01-09T02:16:04.791Z,3.65
2019-01-09T02:18:36.342Z,5.10
2019-01-09T02:21:35.053Z,5.30
2019-01-09T02:24:24.492Z,4.37
2019-01-09T02:26:58.887Z,6.95
2019-01-09T02:29:30.418Z,3.95
2019-01-09T02:32:10.755Z,5.92
2019-01-09T02:34:39.038Z,6.37
2019-01-09T02:37:07.410Z,5.70
2019-01-09T02:39:35.704Z,6.37
2019-01-09T02:42:04.048Z,6.22
2019-01-09T02:44:32.730Z,4.83
2019-01-09T02:47:01.132Z,6.08
2019-01-09T02:49:29.413Z,6.37
2019-01-09T02:51:57.713Z,4.70
2019-01-09T02:54:26.103Z,5.35
2019-01-09T02:56:54.395Z,5.00
2019-01-09T02:59:22.842Z,5.97
2019-01-09T03:01:52.514Z,5.97
2019-01-09T03:04:20.807Z,4.28
2019-01-09T03:06:49.096Z,4.10
2019-01-09T03:09:17.399Z,5.22
2019-01-09T03:11:45.691Z,4.60
2019-01-09T03:14:14.107Z,4.47
2019-01-09T03:16:42.429Z,4.28
2019-01-09T03:19:10.781Z,5.75
2019-01-09T03:21:39.061Z,5.87
2019-01-09T03:24:07.367Z,4.45
2019-01-09T03:26:35.715Z,4.17
2019-01-09T03:29:04.138Z,5.30
2019-01-09T03:31:32.591Z,7.50
2019-01-09T03:34:00.939Z,7.20
2019-01-09T03:36:32.959Z,4.83
2019-01-09T03:38:59.328Z,4.20
2019-01-09T03:41:27.610Z,5.53
2019-01-09T03:43:55.961Z,5.03
2019-01-09T03:46:25.936Z,6.03
2019-01-09T03:48:54.208Z,6.17
2019-01-09T03:51:22.494Z,5.15
2019-01-09T03:53:50.942Z,5.37
2019-01-09T03:56:19.229Z,5.25
2019-01-09T03:58:47.504Z,5.95
2019-01-09T04:01:15.817Z,5.12
2019-01-09T04:03:44.104Z,5.45
2019-01-09T04:06:12.448Z,5.92
2019-01-09T04:08:40.841Z,3.67
2019-01-09T04:11:09.118Z,6.33
2019-01-09T04:13:37.465Z,4.33
2019-01-09T04:16:05.857Z,5.15
2019-01-09T04:18:34.142Z,4.53
2019-01-09T04:21:02.419Z,4.47
2019-01-09T04:23:30.807Z,6.53
2019-01-09T04:25:59.090Z,5.03
2019-01-09T04:28:27.443Z,4.65
2019-01-09T04:30:55.771Z,5.53
2019-01-09T04:33:24.040Z,5.22
2019-01-09T04:35:52.392Z,7.33
2019-01-09T04:38:21.770Z,7.40
2019-01-09T04:40:50.053Z,4.70
2019-01-09T04:43:18.344Z,5.55
2019-01-09T04:45:46.672Z,7.05
2019-01-09T04:48:15.023Z,5.12
2019-01-09T04:50:43.305Z,4.83
2019-01-09T04:53:11.681Z,3.92
2019-01-09T04:55:39.960Z,4.60
2019-01-09T04:58:08.306Z,7.78
2019-01-09T05:00:36.778Z,5.80
2019-01-09T05:03:05.140Z,5.05
2019-01-09T05:05:33.421Z,5.85
2019-01-09T05:08:01.731Z,4.20
2019-01-09T05:10:30.007Z,2.75
2019-01-09T05:12:58.499Z,4.80
2019-01-09T05:15:26.894Z,4.08
2019-01-09T05:17:55.322Z,3.35
2019-01-09T05:20:23.682Z,4.40
2019-01-09T05:22:52.067Z,5.95
2019-01-09T05:25:20.417Z,2.75
2019-01-09T05:27:48.812Z,3.62
2019-01-09T05:30:17.284Z,4.20
2019-01-09T05:32:45.680Z,4.75
2019-01-09T05:35:14.073Z,5.25
2019-01-09T05:37:42.412Z,6.40
2019-01-09T05:40:10.772Z,5.00
2019-01-09T05:42:39.119Z,3.12
2019-01-09T05:45:07.497Z,3.30
2019-01-09T05:47:35.785Z,3.70
2019-01-09T05:50:05.777Z,4.47
2019-01-09T05:52:34.235Z,3.60
2019-01-09T05:55:02.604Z,4.58
2019-01-09T05:57:30.947Z,4.78
2019-01-09T05:59:59.283Z,5.33
2019-01-09T06:02:27.965Z,3.52
2019-01-09T06:04:56.323Z,3.25
2019-01-09T06:07:24.718Z,3.17
2019-01-09T06:09:53.069Z,4.62
2019-01-09T06:12:21.432Z,4.33
2019-01-09T06:14:49.824Z,4.10
2019-01-09T06:17:18.100Z,4.12
2019-01-09T06:19:46.385Z,3.87
2019-01-09T06:22:14.781Z,3.80
2019-01-09T06:24:43.067Z,5.15
2019-01-09T06:27:11.421Z,5.47
2019-01-09T06:29:39.819Z,5.00
2019-01-09T06:32:08.230Z,4.65
2019-01-09T06:34:36.506Z,6.03
2019-01-09T06:37:04.822Z,5.80
2019-01-09T06:39:33.168Z,5.50
2019-01-09T06:42:01.460Z,4.83
2019-01-09T06:44:29.860Z,6.35
2019-01-09T06:46:58.131Z,9.20
2019-01-09T06:49:26.552Z,7.50
2019-01-09T06:51:54.939Z,8.28
2019-01-09T06:54:23.224Z,8.28
2019-01-09T06:56:51.518Z,8.55
2019-01-09T06:59:19.847Z,11.57
2019-01-09T07:01:48.192Z,8.40
2019-01-09T07:04:16.481Z,8.45
2019-01-09T07:06:44.815Z,10.20
2019-01-09T07:09:13.091Z,9.08
2019-01-09T07:11:41.373Z,9.50
2019-01-09T07:14:09.717Z,7.95
2019-01-09T07:16:37.999Z,8.30
2019-01-09T07:19:06.354Z,12.45
2019-01-09T07:21:34.691Z,20.45
2019-01-09T07:24:03.059Z,17.20
2019-01-09T07:26:31.554Z,14.07
2019-01-09T07:28:59.877Z,12.13
2019-01-09T07:31:28.152Z,6.50
2019-01-09T07:33:56.433Z,4.28
2019-01-09T07:36:24.759Z,5.53
2019-01-09T07:38:53.122Z,5.28
2019-01-09T07:41:21.410Z,5.90
2019-01-09T07:43:49.806Z,6.60
2019-01-09T07:46:18.090Z,5.87
2019-01-09T07:48:46.549Z,4.37
2019-01-09T07:51:14.950Z,8.33
2019-01-09T07:53:43.240Z,5.33
2019-01-09T07:56:11.524Z,9.63
2019-01-09T07:58:39.875Z,5.10
2019-01-09T08:01:08.293Z,7.47
2019-01-09T08:03:36.585Z,7.12
2019-01-09T08:06:04.992Z,11.05
2019-01-09T08:08:33.358Z,9.13
2019-01-09T08:11:01.712Z,9.70
2019-01-09T08:13:30.297Z,9.05
2019-01-09T08:15:58.579Z,8.88
2019-01-09T08:18:26.879Z,11.43
2019-01-09T08:20:55.215Z,10.50
2019-01-09T08:23:23.501Z,8.10
2019-01-09T08:25:51.855Z,6.58
2019-01-09T08:28:20.181Z,12.33
2019-01-09T08:30:48.545Z,9.70
2019-01-09T08:33:16.904Z,5.87
2019-01-09T08:35:45.295Z,4.35
2019-01-09T08:38:13.591Z,5.33
2019-01-09T08:40:42.511Z,6.97
2019-01-09T08:43:10.928Z,5.92
2019-01-09T08:45:39.201Z,4.15
2019-01-09T08:48:07.474Z,4.17
2019-01-09T08:50:35.787Z,9.70
2019-01-09T08:53:04.438Z,10.48
2019-01-09T08:55:32.732Z,11.97
2019-01-09T08:58:01.087Z,12.25
2019-01-09T09:00:29.366Z,16.37
2019-01-09T09:02:57.738Z,14.40
2019-01-09T09:05:26.067Z,13.18
2019-01-09T09:07:59.610Z,13.72
2019-01-09T09:10:28.035Z,17.15
2019-01-09T09:12:56.371Z,17.77
2019-01-09T09:15:24.656Z,14.73
2019-01-09T09:17:53.028Z,14.13
2019-01-09T09:20:21.433Z,20.02
2019-01-09T09:22:49.723Z,14.53
2019-01-09T09:25:18.089Z,15.72
2019-01-09T09:27:46.415Z,13.83
2019-01-09T09:30:17.121Z,14.25
2019-01-09T09:32:45.475Z,13.72
2019-01-09T09:35:13.862Z,11.80
2019-01-09T09:37:42.311Z,11.38
2019-01-09T09:40:14.214Z,10.53
2019-01-09T09:42:42.627Z,12.80
2019-01-09T09:45:11.644Z,12.68
2019-01-09T09:47:39.999Z,10.58
2019-01-09T09:50:16.161Z,12.33
2019-01-09T09:52:44.513Z,13.65
2019-01-09T09:55:13.302Z,10.82
2019-01-09T09:57:41.716Z,11.03
2019-01-09T10:00:13.592Z,11.65
2019-01-09T10:02:41.940Z,10.13
2019-01-09T10:05:10.341Z,19.82
2019-01-09T10:07:38.645Z,10.50
2019-01-09T10:10:10.319Z,8.73
2019-01-09T10:12:38.647Z,11.15
2019-01-09T10:15:10.403Z,9.88
2019-01-09T10:17:38.678Z,9.73
2019-01-09T10:20:10.276Z,10.68
2019-01-09T10:22:38.705Z,11.75
2019-01-09T10:25:07.402Z,7.90
2019-01-09T10:27:35.802Z,9.53
2019-01-09T10:30:07.463Z,8.73
2019-01-09T10:32:35.824Z,10.13
2019-01-09T10:35:04.422Z,11.55
2019-01-09T10:37:32.711Z,12.68
2019-01-09T10:40:01.022Z,13.40
2019-01-09T10:42:29.422Z,12.82
2019-01-09T10:44:57.719Z,12.95
2019-01-09T10:47:26.006Z,12.00
2019-01-09T10:49:54.324Z,11.30
2019-01-09T10:52:22.685Z,9.50
2019-01-09T10:54:50.977Z,11.40
2019-01-09T10:57:19.451Z,15.75
2019-01-09T10:59:47.820Z,10.55
2019-01-09T11:02:16.252Z,10.98
2019-01-09T11:04:44.796Z,10.98
2019-01-09T11:07:13.223Z,10.28
2019-01-09T11:09:41.569Z,9.93
2019-01-09T11:12:09.917Z,10.72
2019-01-09T11:14:38.267Z,10.95
2019-01-09T11:17:06.627Z,11.33
2019-01-09T11:19:35.031Z,12.07
2019-01-09T11:22:03.469Z,11.18
2019-01-09T11:24:31.835Z,10.65
2019-01-09T11:27:00.166Z,8.88
2019-01-09T11:29:28.589Z,12.82
2019-01-09T11:31:56.941Z,11.45
2019-01-09T11:34:25.259Z,10.50
2019-01-09T11:36:53.614Z,10.20
2019-01-09T11:39:21.905Z,11.25
2019-01-09T11:41:50.376Z,10.58
2019-01-09T11:44:18.657Z,11.83
2019-01-09T11:46:46.953Z,10.43
2019-01-09T11:49:15.577Z,8.48
2019-01-09T11:51:43.861Z,11.80
2019-01-09T11:54:12.155Z,9.68
2019-01-09T11:56:40.482Z,13.05
2019-01-09T11:59:08.927Z,14.10
2019-01-09T12:01:37.286Z,16.93
2019-01-09T12:04:05.777Z,11.63
2019-01-09T12:06:34.189Z,10.63
2019-01-09T12:09:04.625Z,9.45
2019-01-09T12:11:32.903Z,11.68
2019-01-09T12:14:01.328Z,13.48
2019-01-09T12:16:29.835Z,15.60
2019-01-09T12:18:58.163Z,13.35
2019-01-09T12:21:26.658Z,8.55
2019-01-09T12:23:55.158Z,9.63
2019-01-09T12:26:23.685Z,7.78
2019-01-09T12:28:53.704Z,8.73
2019-01-09T12:31:22.433Z,6.85
2019-01-09T12:33:50.780Z,7.22
2019-01-09T12:36:19.278Z,8.58
2019-01-09T12:38:47.793Z,8.00
2019-01-09T12:41:16.326Z,8.93
2019-01-09T12:43:44.808Z,5.90
2019-01-09T12:46:13.304Z,5.05
2019-01-09T12:48:41.698Z,7.30
2019-01-09T12:51:09.986Z,6.55
2019-01-09T12:53:38.481Z,7.97
2019-01-09T12:56:06.958Z,6.83
2019-01-09T12:58:35.375Z,7.58
2019-01-09T13:01:03.881Z,6.15
2019-01-09T13:03:32.207Z,8.88
2019-01-09T13:06:00.487Z,6.58
2019-01-09T13:08:28.774Z,6.17
2019-01-09T13:10:57.107Z,9.85
2019-01-09T13:13:25.596Z,6.62
2019-01-09T13:15:53.964Z,6.35
2019-01-09T13:18:22.300Z,7.67
2019-01-09T13:20:50.799Z,6.85
2019-01-09T13:23:19.304Z,5.87
2019-01-09T13:25:47.698Z,8.90
2019-01-09T13:28:16.048Z,8.98
2019-01-09T13:30:44.533Z,7.28
2019-01-09T13:33:13.081Z,5.60
2019-01-09T13:35:41.369Z,7.83
2019-01-09T13:38:09.860Z,9.18
2019-01-09T13:40:38.173Z,9.55
2019-01-09T13:43:06.674Z,9.00
2019-01-09T13:45:34.958Z,10.95
2019-01-09T13:48:03.287Z,8.58
2019-01-09T13:50:31.783Z,9.03
2019-01-09T13:53:00.237Z,11.12
2019-01-09T13:55:28.777Z,6.08
2019-01-09T13:57:57.194Z,8.18
2019-01-09T14:00:25.698Z,5.28
2019-01-09T14:02:54.217Z,4.67
2019-01-09T14:05:22.568Z,6.87
2019-01-09T14:07:51.078Z,5.87
2019-01-09T14:10:21.534Z,5.78
2019-01-09T14:12:50.028Z,5.55
2019-01-09T14:15:20.317Z,6.58
2019-01-09T14:17:48.637Z,8.15
2019-01-09T14:20:17.118Z,4.70
2019-01-09T14:22:46.662Z,7.20
2019-01-09T14:25:16.523Z,11.10
2019-01-09T14:27:44.941Z,14.53
2019-01-09T14:30:19.191Z,10.68
2019-01-09T14:32:47.718Z,8.50
2019-01-09T14:35:16.072Z,19.05
2019-01-09T14:37:44.565Z,13.38
2019-01-09T14:40:18.584Z,13.35
2019-01-09T14:42:47.012Z,26.40
2019-01-09T14:45:16.509Z,14.10
2019-01-09T14:47:44.982Z,20.40
2019-01-09T14:50:15.905Z,10.08
2019-01-09T14:52:44.201Z,10.32
2019-01-09T14:55:12.736Z,8.43
2019-01-09T14:57:41.019Z,7.60
2019-01-09T15:00:12.881Z,7.62
2019-01-09T15:02:41.211Z,6.87
2019-01-09T15:05:09.712Z,8.50
2019-01-09T15:07:38.058Z,5.03
2019-01-09T15:10:12.709Z,7.05
2019-01-09T15:12:41.048Z,6.55
2019-01-09T15:15:12.542Z,5.78
2019-01-09T15:17:41.084Z,4.17
2019-01-09T15:20:12.368Z,5.95
2019-01-09T15:22:40.860Z,7.72
2019-01-09T15:25:10.891Z,7.17
2019-01-09T15:27:39.383Z,6.55
2019-01-09T15:30:23.195Z,9.38
2019-01-09T15:32:51.691Z,10.78
2019-01-09T15:35:20.183Z,11.15
2019-01-09T15:37:48.726Z,11.28
2019-01-09T15:40:24.586Z,7.10
2019-01-09T15:42:53.119Z,7.75
2019-01-09T15:45:21.620Z,7.28
2019-01-09T15:47:50.122Z,8.48
2019-01-09T15:50:21.512Z,18.75
2019-01-09T15:52:50.022Z,15.63
2019-01-09T15:55:18.623Z,14.65
2019-01-09T15:57:48.946Z,10.13
2019-01-09T16:00:25.951Z,12.95
2019-01-09T16:02:54.568Z,5.67
2019-01-09T16:05:23.054Z,10.40
2019-01-09T16:07:51.542Z,10.08
2019-01-09T16:10:22.176Z,9.83
2019-01-09T16:12:50.660Z,8.03
2019-01-09T16:15:19.655Z,6.95
2019-01-09T16:17:48.197Z,4.78
2019-01-09T16:20:21.115Z,6.30
2019-01-09T16:22:49.600Z,4.83
2019-01-09T16:25:18.131Z,4.40
2019-01-09T16:27:46.616Z,5.47
2019-01-09T16:30:33.933Z,5.35
2019-01-09T16:32:57.385Z,4.90
2019-01-09T16:35:26.067Z,4.45
2019-01-09T16:37:54.588Z,6.50
2019-01-09T16:40:23.758Z,7.08
2019-01-09T16:42:52.268Z,5.35
2019-01-09T16:45:20.798Z,3.58
2019-01-09T16:47:49.285Z,4.53
2019-01-09T16:50:24.686Z,2.45
2019-01-09T16:52:53.215Z,4.40
2019-01-09T16:55:21.706Z,4.70
2019-01-09T16:57:50.187Z,7.90
2019-01-09T17:00:27.782Z,7.47
2019-01-09T17:02:56.270Z,3.80
2019-01-09T17:05:24.758Z,5.78
2019-01-09T17:07:53.578Z,5.78
2019-01-09T17:10:22.076Z,6.55
2019-01-09T17:12:50.579Z,6.62
2019-01-09T17:15:19.517Z,16.02
2019-01-09T17:17:48.005Z,8.38
2019-01-09T17:20:31.506Z,10.05
2019-01-09T17:23:00.119Z,6.75
2019-01-09T17:25:28.616Z,6.17
2019-01-09T17:27:57.146Z,6.42
2019-01-09T17:30:30.483Z,4.08
2019-01-09T17:32:58.975Z,5.17
2019-01-09T17:35:27.519Z,5.75
2019-01-09T17:37:56.006Z,6.62
2019-01-09T17:40:24.896Z,5.75
2019-01-09T17:42:53.537Z,9.25
2019-01-09T17:45:22.032Z,11.00
2019-01-09T17:47:50.518Z,5.37
2019-01-09T17:50:24.037Z,8.60
2019-01-09T17:52:52.907Z,6.45
2019-01-09T17:55:21.399Z,4.08
2019-01-09T17:57:49.954Z,3.58
2019-01-09T18:00:20.934Z,3.90
2019-01-09T18:02:49.434Z,4.95
2019-01-09T18:05:18.193Z,3.42
2019-01-09T18:07:46.697Z,2.95
2019-01-09T18:10:20.441Z,6.08
2019-01-09T18:12:49.079Z,4.95
2019-01-09T18:15:19.474Z,5.33
2019-01-09T18:17:47.957Z,7.80
2019-01-09T18:20:18.004Z,4.87
2019-01-09T18:22:46.479Z,6.25
2019-01-09T18:25:23.515Z,5.67
2019-01-09T18:27:53.580Z,6.87
2019-01-09T18:30:34.127Z,5.20
2019-01-09T18:33:08.791Z,4.72
2019-01-09T18:35:40.844Z,5.15
2019-01-09T18:38:29.061Z,4.47
2019-01-09T18:41:09.760Z,4.50
2019-01-09T18:43:44.093Z,4.53
2019-01-09T18:46:46.969Z,5.28
2019-01-09T18:49:33.260Z,4.08
2019-01-09T18:52:24.451Z,4.70
2019-01-09T18:54:52.949Z,4.33
2019-01-09T18:57:21.446Z,4.72
2019-01-09T18:59:49.975Z,4.62
2019-01-09T19:02:18.473Z,5.15
2019-01-09T19:04:47.352Z,4.85
2019-01-09T19:07:15.896Z,3.87
2019-01-09T19:09:44.381Z,3.40
2019-01-09T19:12:12.892Z,4.60
2019-01-09T19:14:41.419Z,3.45
2019-01-09T19:17:09.899Z,3.37
2019-01-09T19:19:38.393Z,3.72
2019-01-09T19:22:06.926Z,4.83
2019-01-09T19:24:35.413Z,8.55
2019-01-09T19:27:03.918Z,6.90
2019-01-09T19:29:32.445Z,7.37
2019-01-09T19:32:01.030Z,8.60
2019-01-09T19:34:29.529Z,6.35
2019-01-09T19:36:58.056Z,9.45
2019-01-09T19:39:26.551Z,6.25
2019-01-09T19:41:55.051Z,5.33
2019-01-09T19:44:23.608Z,9.63
2019-01-09T19:46:55.143Z,11.18
2019-01-09T19:49:25.193Z,8.00
2019-01-09T19:51:53.999Z,4.47
2019-01-09T19:54:22.504Z,5.80
2019-01-09T19:56:51.014Z,11.28
2019-01-09T19:59:19.568Z,9.18
2019-01-09T20:01:48.067Z,10.48
2019-01-09T20:04:16.649Z,6.00
2019-01-09T20:06:45.196Z,10.70
2019-01-09T20:09:13.684Z,8.40
2019-01-09T20:11:42.230Z,8.00
2019-01-09T20:14:10.704Z,5.70
2019-01-09T20:16:39.288Z,6.42
2019-01-09T20:19:07.875Z,10.32
2019-01-09T20:21:36.431Z,6.25
2019-01-09T20:24:04.923Z,9.68
2019-01-09T20:26:33.445Z,7.45
2019-01-09T20:29:01.928Z,5.33
2019-01-09T20:31:30.490Z,6.12
2019-01-09T20:33:58.996Z,4.55
2019-01-09T20:36:27.534Z,4.58
2019-01-09T20:38:56.056Z,5.65
2019-01-09T20:41:24.715Z,6.28
2019-01-09T20:43:53.248Z,4.78
2019-01-09T20:46:21.750Z,8.03
2019-01-09T20:48:50.236Z,8.55
2019-01-09T20:51:18.869Z,5.53
2019-01-09T20:53:47.327Z,6.87
2019-01-09T20:56:15.827Z,5.35
2019-01-09T20:58:44.483Z,5.37
2019-01-09T21:01:13.149Z,5.42
2019-01-09T21:03:41.636Z,7.05
2019-01-09T21:06:10.152Z,4.65
2019-01-09T21:08:38.773Z,6.05
2019-01-09T21:11:07.221Z,4.55
2019-01-09T21:13:35.766Z,5.65
2019-01-09T21:16:04.354Z,8.38
2019-01-09T21:18:32.863Z,8.60
2019-01-09T21:21:01.398Z,9.25
2019-01-09T21:23:29.898Z,7.08
2019-01-09T21:25:58.393Z,7.05
2019-01-09T21:28:26.805Z,6.58
2019-01-09T21:30:55.297Z,6.97
2019-01-09T21:33:23.794Z,4.62
2019-01-09T21:35:52.315Z,5.42
2019-01-09T21:38:20.803Z,5.83
2019-01-09T21:40:49.291Z,6.03
2019-01-09T21:43:17.853Z,7.10
2019-01-09T21:45:46.343Z,5.83
2019-01-09T21:48:14.930Z,6.40
2019-01-09T21:50:43.456Z,4.42
2019-01-09T21:53:11.756Z,5.67
2019-01-09T21:55:40.255Z,5.72
2019-01-09T21:58:08.780Z,5.40
2019-01-09T22:00:37.262Z,4.65
2019-01-09T22:03:05.754Z,7.10
2019-01-09T22:05:34.090Z,7.05
2019-01-09T22:08:02.515Z,6.17
2019-01-09T22:10:33.081Z,8.33
2019-01-09T22:13:01.475Z,6.30
2019-01-09T22:15:29.902Z,7.35
2019-01-09T22:17:58.176Z,6.55
2019-01-09T22:20:26.572Z,4.50
2019-01-09T22:22:55.193Z,6.37
2019-01-09T22:25:23.652Z,6.60
2019-01-09T22:27:51.985Z,9.10
2019-01-09T22:30:22.568Z,7.20
2019-01-09T22:32:50.851Z,6.30
2019-01-09T22:35:19.231Z,6.80
2019-01-09T22:37:47.517Z,5.45
2019-01-09T22:40:17.748Z,5.47
2019-01-09T22:42:46.072Z,5.58
2019-01-09T22:45:15.163Z,5.60
2019-01-09T22:47:43.519Z,5.87
2019-01-09T22:50:14.380Z,8.53
2019-01-09T22:52:42.732Z,6.37
2019-01-09T22:55:11.404Z,5.45
2019-01-09T22:57:39.751Z,6.12
2019-01-09T23:00:32.573Z,6.33
2019-01-09T23:03:01.239Z,6.25
2019-01-09T23:05:29.525Z,6.08
2019-01-09T23:07:57.903Z,4.83
2019-01-09T23:10:26.282Z,9.15
2019-01-09T23:12:54.637Z,9.03
2019-01-09T23:15:23.063Z,7.60
2019-01-09T23:17:51.447Z,7.78
2019-01-09T23:20:19.739Z,8.60
2019-01-09T23:22:48.106Z,8.48
2019-01-09T23:25:16.430Z,7.20
2019-01-09T23:27:44.708Z,9.53
2019-01-09T23:30:13.511Z,10.25
2019-01-09T23:32:41.908Z,8.88
2019-01-09T23:35:11.692Z,7.53
2019-01-09T23:37:40.041Z,8.85
2019-01-09T23:40:13.715Z,8.00
2019-01-09T23:42:42.059Z,8.38
2019-01-09T23:45:11.588Z,10.63
2019-01-09T23:47:39.917Z,8.35
2019-01-09T23:50:09.538Z,9.05
2019-01-09T23:52:37.893Z,9.13
2019-01-09T23:55:08.890Z,10.50
2019-01-09T23:57:37.190Z,10.18
